Time;durP1;ratioP1;P1;durP2;ratioP2;P2;SDS_P1;SDS_P2;PMS_P1;PMS_P2;Temp;Humidity;BMP_temperature;BMP_pressure;BME280_temperature;BME280_humidity;BME280_pressure;Samples;Min_cycle;Max_cycle;Signal;HPM_P1;HPM_P2
2021/12/26 00:00:27;;;;;;;22.98;10.10;;;;;;;2.03;100.00;97927.44;4975991;28;20153;-84
2021/12/26 00:02:53;;;;;;;23.02;10.98;;;;;;;1.87;100.00;97905.03;4954511;28;20063;-84
2021/12/26 00:05:19;;;;;;;17.98;9.90;;;;;;;1.92;100.00;97902.72;4960929;28;20064;-86
2021/12/26 00:07:45;;;;;;;19.30;10.02;;;;;;;1.98;100.00;97915.81;4941744;28;20043;-85
2021/12/26 00:10:14;;;;;;;23.90;10.25;;;;;;;1.92;100.00;97903.56;4958677;28;20030;-86
2021/12/26 00:12:40;;;;;;;20.95;10.30;;;;;;;2.16;100.00;97930.31;4959223;28;20110;-84
2021/12/26 00:15:06;;;;;;;23.20;9.82;;;;;;;2.07;100.00;97908.81;4943456;28;20161;-83
2021/12/26 00:17:32;;;;;;;20.60;10.38;;;;;;;2.18;100.00;97906.84;4958326;28;20397;-84
2021/12/26 00:19:59;;;;;;;25.00;11.38;;;;;;;2.12;100.00;97892.81;4959091;28;20039;-83
2021/12/26 00:22:25;;;;;;;21.00;11.90;;;;;;;2.13;100.00;97895.19;4943320;28;20066;-83
2021/12/26 00:24:51;;;;;;;29.25;14.27;;;;;;;2.19;100.00;97903.28;4942131;28;20121;-83
2021/12/26 00:27:19;;;;;;;28.17;15.10;;;;;;;2.03;100.00;97884.25;4958345;28;20030;-85
2021/12/26 00:29:46;;;;;;;24.80;14.27;;;;;;;1.99;100.00;97880.41;4942697;28;20106;-83
2021/12/26 00:32:12;;;;;;;25.77;13.00;;;;;;;2.06;100.00;97909.81;4939014;28;20030;-81
2021/12/26 00:34:38;;;;;;;24.05;12.80;;;;;;;1.94;100.00;97893.00;4973388;28;20397;-83
2021/12/26 00:37:05;;;;;;;24.52;12.32;;;;;;;2.12;100.00;97906.53;4957206;28;20045;-83
2021/12/26 00:39:31;;;;;;;22.48;13.75;;;;;;;2.14;100.00;97891.63;4957412;28;20124;-84
2021/12/26 00:41:57;;;;;;;31.10;12.20;;;;;;;2.02;100.00;97877.47;4958497;28;20031;-84
2021/12/26 00:44:22;;;;;;;22.65;13.07;;;;;;;2.13;100.00;97892.63;4958623;28;20118;-85
2021/12/26 00:46:50;;;;;;;22.58;13.13;;;;;;;1.88;100.00;97878.16;4976571;28;20058;-85
2021/12/26 00:49:16;;;;;;;22.30;12.70;;;;;;;1.90;100.00;97871.03;4960292;28;20031;-85
2021/12/26 00:51:41;;;;;;;22.70;13.13;;;;;;;1.89;100.00;97879.78;4944384;28;20541;-85
2021/12/26 00:54:07;;;;;;;26.83;13.95;;;;;;;1.94;100.00;97869.72;4984365;28;20026;-84
2021/12/26 00:56:33;;;;;;;23.35;14.43;;;;;;;1.85;100.00;97887.88;4974506;28;20089;-84
2021/12/26 00:58:58;;;;;;;26.25;13.70;;;;;;;1.75;100.00;97865.75;4981350;28;20031;-83
2021/12/26 01:01:24;;;;;;;35.17;13.90;;;;;;;1.61;100.00;97846.56;4961419;28;20042;-85
2021/12/26 01:03:50;;;;;;;21.95;12.73;;;;;;;1.84;100.00;97870.75;4959787;28;20030;-87
2021/12/26 01:06:16;;;;;;;26.85;13.40;;;;;;;1.84;100.00;97860.38;4959563;28;20070;-87
2021/12/26 01:08:43;;;;;;;19.90;12.60;;;;;;;1.93;100.00;97857.75;4957523;28;20039;-86
2021/12/26 01:11:31;;;;;;;23.80;13.85;;;;;;;1.87;100.00;97842.91;4957417;28;20054;-86
2021/12/26 01:13:58;;;;;;;26.23;13.40;;;;;;;1.96;100.00;97858.25;4957518;28;20038;-83
2021/12/26 01:16:25;;;;;;;21.00;13.45;;;;;;;1.92;100.00;97850.97;4958473;28;20548;-85
2021/12/26 01:18:52;;;;;;;23.65;14.55;;;;;;;1.98;100.00;97842.56;4940901;28;20064;-87
2021/12/26 01:21:21;;;;;;;22.75;13.85;;;;;;;2.01;100.00;97849.97;4956533;28;20039;-85
2021/12/26 01:23:51;;;;;;;25.90;13.70;;;;;;;2.11;100.00;97847.97;4957011;28;20036;-86
2021/12/26 01:26:18;;;;;;;26.45;14.45;;;;;;;1.91;100.00;97854.53;4973777;28;20522;-86
2021/12/26 01:28:43;;;;;;;26.88;14.45;;;;;;;2.03;100.00;97835.09;4974425;28;20405;-84
2021/12/26 01:31:09;;;;;;;24.65;14.60;;;;;;;2.09;100.00;97841.38;4956725;28;20026;-84
2021/12/26 01:33:35;;;;;;;23.90;14.90;;;;;;;1.90;100.00;97822.69;4941312;28;20030;-84
2021/12/26 01:36:02;;;;;;;30.23;15.23;;;;;;;1.90;100.00;97824.47;4941730;28;20118;-85
2021/12/26 01:38:28;;;;;;;25.23;14.13;;;;;;;1.93;100.00;97837.88;4955972;28;20113;-86
2021/12/26 01:40:56;;;;;;;29.13;14.80;;;;;;;1.79;100.00;97839.41;4941249;28;20170;-86
2021/12/26 01:43:26;;;;;;;27.10;14.85;;;;;;;1.83;100.00;97827.72;4941466;28;20039;-85
2021/12/26 01:45:53;;;;;;;22.20;14.48;;;;;;;2.10;100.00;97848.94;4957589;28;20042;-86
2021/12/26 01:48:21;;;;;;;26.02;15.05;;;;;;;2.10;100.00;97843.78;4962939;28;20441;-85
2021/12/26 01:50:52;;;;;;;25.13;14.68;;;;;;;2.18;100.00;97839.53;4940286;28;20496;-87
2021/12/26 01:53:19;;;;;;;25.30;15.80;;;;;;;2.15;100.00;97832.91;4956132;28;20038;-84
2021/12/26 01:55:46;;;;;;;28.00;14.80;;;;;;;2.00;100.00;97825.06;4974181;28;20039;-84
2021/12/26 01:58:18;;;;;;;26.35;15.02;;;;;;;2.08;100.00;97825.03;4954890;28;20027;-85
2021/12/26 02:00:48;;;;;;;26.52;14.85;;;;;;;2.21;100.00;97824.47;4956740;28;20038;-85
2021/12/26 02:03:14;;;;;;;24.73;15.20;;;;;;;2.11;100.00;97832.44;4974082;28;20031;-83
2021/12/26 02:05:39;;;;;;;27.60;16.45;;;;;;;2.11;100.00;97819.50;4940986;28;20393;-84
2021/12/26 02:08:06;;;;;;;21.45;13.98;;;;;;;2.17;100.00;97825.00;4956792;28;20059;-84
2021/12/26 02:10:33;;;;;;;24.92;15.20;;;;;;;2.25;100.00;97835.28;4955623;28;20130;-85
2021/12/26 02:12:58;;;;;;;27.65;15.63;;;;;;;2.27;100.00;97835.94;4940659;28;20030;-86
2021/12/26 02:15:24;;;;;;;26.10;16.50;;;;;;;2.03;100.00;97811.78;4956479;28;20385;-84
2021/12/26 02:17:50;;;;;;;22.08;14.68;;;;;;;2.17;100.00;97835.34;4940454;28;20054;-86
2021/12/26 02:20:27;;;;;;;24.30;15.50;;;;;;;2.27;100.00;97825.56;4955997;28;20031;-84
2021/12/26 02:22:58;;;;;;;23.02;14.27;;;;;;;2.03;100.00;97798.03;4955657;28;20109;-84
2021/12/26 02:27:49;;;;;;;22.83;15.07;;;;;;;2.36;100.00;97832.31;4955903;28;20042;-84
2021/12/26 02:30:16;;;;;;;20.05;13.45;;;;;;;2.38;100.00;97834.72;4972214;28;20030;-84
2021/12/26 02:32:46;;;;;;;20.48;13.25;;;;;;;2.29;100.00;97826.19;4939758;28;20559;-85
2021/12/26 02:35:12;;;;;;;17.83;12.05;;;;;;;2.37;100.00;97838.28;4954926;28;20122;-84
2021/12/26 02:37:37;;;;;;;18.80;13.00;;;;;;;2.33;100.00;97819.69;4972013;28;20035;-85
2021/12/26 02:40:04;;;;;;;21.35;14.20;;;;;;;2.45;100.00;97840.81;4939473;28;20099;-85
2021/12/26 02:42:30;;;;;;;21.15;12.93;;;;;;;2.40;100.00;97832.75;4955746;28;20027;-83
2021/12/26 02:44:56;;;;;;;15.90;12.18;;;;;;;2.48;100.00;97834.50;4955179;28;20445;-83
2021/12/26 02:47:37;;;;;;;21.45;12.95;;;;;;;2.51;100.00;97836.75;4955518;28;20436;-83
2021/12/26 02:50:09;;;;;;;18.45;13.20;;;;;;;2.49;100.00;97830.94;4971044;28;20422;-83
2021/12/26 02:52:35;;;;;;;22.90;13.05;;;;;;;2.23;100.00;97801.00;4955546;28;20054;-84
2021/12/26 02:55:00;;;;;;;19.58;13.35;;;;;;;2.14;100.00;97798.44;4955521;28;20035;-85
2021/12/26 02:57:26;;;;;;;17.60;11.77;;;;;;;2.25;100.00;97809.41;4939780;28;20022;-86
2021/12/26 02:59:52;;;;;;;17.17;12.40;;;;;;;2.25;100.00;97819.75;4940616;28;20037;-86
2021/12/26 03:02:21;;;;;;;17.13;10.25;;;;;;;2.04;100.00;97799.63;4942588;28;20038;-87
2021/12/26 03:04:47;;;;;;;15.85;11.32;;;;;;;2.09;100.00;97815.47;4975707;28;20465;-84
2021/12/26 03:07:13;;;;;;;15.63;10.70;;;;;;;2.24;100.00;97818.16;4943687;28;20034;-86
2021/12/26 03:09:48;;;;;;;17.30;11.55;;;;;;;2.24;100.00;97803.41;4959613;28;20074;-86
2021/12/26 03:12:14;;;;;;;14.80;10.90;;;;;;;2.24;100.00;97806.00;4943394;28;20108;-86
2021/12/26 03:14:40;;;;;;;17.98;11.43;;;;;;;2.30;100.00;97812.28;4960693;28;20151;-87
2021/12/26 03:17:06;;;;;;;16.30;12.10;;;;;;;2.29;100.00;97808.06;4943598;28;20055;-87
2021/12/26 03:19:33;;;;;;;14.75;11.48;;;;;;;2.30;100.00;97806.31;4976364;28;20113;-87
2021/12/26 03:21:59;;;;;;;16.48;11.82;;;;;;;2.32;100.00;97805.13;4960129;28;20027;-87
2021/12/26 03:24:25;;;;;;;16.55;11.88;;;;;;;2.28;100.00;97793.50;4958872;28;20053;-85
2021/12/26 03:26:58;;;;;;;17.88;12.40;;;;;;;2.33;100.00;97790.41;4943761;28;20034;-88
2021/12/26 03:29:24;;;;;;;16.27;12.07;;;;;;;2.24;100.00;97782.69;4958722;28;20062;-89
2021/12/26 03:31:49;;;;;;;15.98;12.35;;;;;;;2.36;100.00;97792.66;4944365;28;20438;-86
2021/12/26 03:34:15;;;;;;;20.00;12.60;;;;;;;2.22;100.00;97766.53;4944407;28;20030;-87
2021/12/26 03:36:42;;;;;;;18.88;12.43;;;;;;;2.18;100.00;97782.59;4977412;28;20038;-88
2021/12/26 03:39:08;;;;;;;17.10;12.52;;;;;;;2.23;100.00;97786.25;4959442;28;20030;-86
2021/12/26 03:41:34;;;;;;;18.77;12.82;;;;;;;2.34;100.00;97790.22;4943865;28;20035;-85
2021/12/26 03:44:00;;;;;;;20.30;12.60;;;;;;;2.27;100.00;97781.53;4960035;28;20134;-86
2021/12/26 03:46:27;;;;;;;18.00;12.23;;;;;;;2.37;100.00;97778.72;4944437;28;20023;-86
2021/12/26 03:48:52;;;;;;;19.75;13.90;;;;;;;2.36;100.00;97769.34;4959966;28;20162;-85
2021/12/26 03:51:20;;;;;;;18.67;12.93;;;;;;;2.23;100.00;97773.31;4960055;28;20117;-86
2021/12/26 03:53:46;;;;;;;18.40;13.48;;;;;;;2.21;100.00;97766.72;4944207;28;20078;-85
2021/12/26 03:56:11;;;;;;;17.33;13.13;;;;;;;2.33;100.00;97773.06;4943345;28;20035;-85
2021/12/26 03:58:38;;;;;;;19.40;13.70;;;;;;;2.41;100.00;97783.41;4945431;28;20041;-84
2021/12/26 04:01:03;;;;;;;18.58;13.55;;;;;;;2.46;100.00;97775.13;4979872;28;20038;-85
2021/12/26 04:03:29;;;;;;;21.30;13.73;;;;;;;2.32;100.00;97743.00;4953759;28;20038;-84
2021/12/26 04:05:55;;;;;;;18.52;13.50;;;;;;;2.45;100.00;97767.50;4971185;28;20037;-85
2021/12/26 04:08:21;;;;;;;17.73;13.27;;;;;;;2.43;100.00;97765.91;4963907;28;20118;-85
2021/12/26 04:10:46;;;;;;;20.35;14.77;;;;;;;2.41;100.00;97767.84;4944782;28;20110;-85
2021/12/26 04:13:12;;;;;;;20.30;13.82;;;;;;;2.31;100.00;97750.94;4960661;28;20029;-85
2021/12/26 04:15:39;;;;;;;16.63;11.88;;;;;;;2.38;100.00;97750.09;4977927;28;20134;-87
2021/12/26 04:18:05;;;;;;;17.67;13.00;;;;;;;2.49;100.00;97763.59;4943343;28;20509;-87
2021/12/26 04:20:34;;;;;;;18.52;12.82;;;;;;;2.48;100.00;97767.16;4977316;28;20043;-86
2021/12/26 04:23:01;;;;;;;16.65;12.63;;;;;;;2.39;100.00;97748.28;4959961;28;20026;-85
2021/12/26 04:25:27;;;;;;;22.00;13.98;;;;;;;2.42;100.00;97743.56;4958300;28;20026;-84
2021/12/26 04:27:54;;;;;;;17.25;12.95;;;;;;;2.57;100.00;97753.19;4958866;28;20089;-84
2021/12/26 04:30:21;;;;;;;17.83;12.18;;;;;;;2.61;100.00;97762.19;4942055;28;20023;-85
2021/12/26 04:32:47;;;;;;;17.08;12.82;;;;;;;2.34;100.00;97740.25;4958394;28;20097;-85
2021/12/26 04:35:14;;;;;;;18.58;12.57;;;;;;;2.39;100.00;97735.34;4958589;28;20030;-85
2021/12/26 04:37:40;;;;;;;19.30;12.82;;;;;;;2.49;100.00;97751.44;4958050;28;20157;-84
2021/12/26 04:40:08;;;;;;;20.13;13.18;;;;;;;2.49;100.00;97743.69;4942448;28;20121;-84
2021/12/26 04:42:34;;;;;;;16.95;12.43;;;;;;;2.51;100.00;97735.72;4957264;28;20493;-84
2021/12/26 04:44:59;;;;;;;19.02;12.93;;;;;;;2.56;100.00;97746.38;4941624;28;20054;-85
2021/12/26 04:47:25;;;;;;;17.40;12.40;;;;;;;2.60;100.00;97736.47;4975685;28;20415;-84
2021/12/26 04:49:51;;;;;;;19.10;13.55;;;;;;;2.59;100.00;97748.63;4975577;28;20050;-84
2021/12/26 04:52:16;;;;;;;16.83;12.57;;;;;;;2.55;100.00;97737.78;4941764;28;20129;-84
2021/12/26 04:54:42;;;;;;;20.83;12.77;;;;;;;2.67;100.00;97745.94;4942044;28;20488;-84
2021/12/26 04:57:08;;;;;;;21.35;13.68;;;;;;;2.63;100.00;97742.09;4940677;28;20027;-84
2021/12/26 04:59:33;;;;;;;18.15;12.98;;;;;;;2.64;100.00;97746.31;4958086;28;20026;-84
2021/12/26 05:01:59;;;;;;;18.90;12.55;;;;;;;2.60;100.00;97728.69;4941130;28;20035;-84
2021/12/26 05:04:25;;;;;;;22.40;12.93;;;;;;;2.65;100.00;97732.38;4957360;28;20113;-85
2021/12/26 05:06:51;;;;;;;17.55;13.23;;;;;;;2.70;100.00;97732.63;4940522;28;20050;-85
2021/12/26 05:09:18;;;;;;;18.90;13.50;;;;;;;2.71;100.00;97736.84;4958218;28;20445;-85
2021/12/26 05:11:44;;;;;;;20.20;13.27;;;;;;;2.60;100.00;97720.91;4974689;28;20038;-84
2021/12/26 05:14:09;;;;;;;19.33;12.68;;;;;;;2.74;100.00;97734.88;4975155;28;21712;-84
2021/12/26 05:16:35;;;;;;;25.83;14.38;;;;;;;2.72;100.00;97725.50;4974782;28;20498;-84
2021/12/26 05:19:01;;;;;;;18.40;13.35;;;;;;;2.73;100.00;97726.31;4941586;28;20050;-84
2021/12/26 05:21:26;;;;;;;19.55;13.15;;;;;;;2.71;100.00;97726.47;4967545;28;20397;-85
2021/12/26 05:23:52;;;;;;;24.70;13.73;;;;;;;2.64;100.00;97722.97;4974897;28;20043;-86
2021/12/26 05:26:18;;;;;;;18.92;12.27;;;;;;;2.51;100.00;97702.06;4975209;28;20031;-85
2021/12/26 05:28:43;;;;;;;20.40;13.25;;;;;;;2.68;100.00;97724.25;4958130;28;20055;-85
2021/12/26 05:31:09;;;;;;;21.17;14.23;;;;;;;2.70;100.00;97724.06;4957761;28;20027;-86
2021/12/26 05:33:35;;;;;;;30.40;14.88;;;;;;;2.64;100.00;97719.56;4942175;28;20031;-84
2021/12/26 05:36:00;;;;;;;167.68;22.17;;;;;;;2.66;100.00;97717.66;4941911;28;20038;-85
2021/12/26 05:38:27;;;;;;;29.40;13.65;;;;;;;2.64;100.00;97714.41;4956824;28;20030;-84
2021/12/26 05:40:55;;;;;;;22.85;14.00;;;;;;;2.65;100.00;97716.00;4957537;28;20039;-85
2021/12/26 05:43:20;;;;;;;31.48;14.73;;;;;;;2.71;100.00;97718.69;4957739;28;20130;-84
2021/12/26 05:45:46;;;;;;;57.63;16.10;;;;;;;2.75;100.00;97713.16;4956910;28;20113;-85
2021/12/26 05:48:12;;;;;;;29.45;13.50;;;;;;;2.57;100.00;97693.59;4942239;28;20031;-86
2021/12/26 05:50:40;;;;;;;22.58;13.95;;;;;;;2.71;100.00;97710.94;4957283;28;20062;-86
2021/12/26 05:53:06;;;;;;;65.20;15.77;;;;;;;2.79;100.00;97709.25;4955952;28;20049;-84
2021/12/26 05:55:31;;;;;;;17.45;12.50;;;;;;;2.79;100.00;97697.09;4957481;28;20034;-85
2021/12/26 05:57:58;;;;;;;17.35;12.52;;;;;;;2.66;100.00;97674.38;4955612;28;20027;-84
2021/12/26 06:00:23;;;;;;;31.17;11.90;;;;;;;2.86;100.00;97699.78;4974222;28;20023;-85
2021/12/26 06:02:50;;;;;;;17.45;12.52;;;;;;;2.81;100.00;97689.16;4957789;28;20039;-84
2021/12/26 06:05:18;;;;;;;19.20;12.07;;;;;;;2.86;100.00;97694.59;4957195;28;20481;-85
2021/12/26 06:07:44;;;;;;;16.08;11.35;;;;;;;2.95;100.00;97693.53;4941037;28;20286;-85
2021/12/26 06:10:09;;;;;;;32.92;14.45;;;;;;;2.90;100.00;97676.91;4956474;28;20037;-84
2021/12/26 06:12:36;;;;;;;20.40;13.13;;;;;;;2.77;100.00;97667.97;4957032;28;20041;-85
2021/12/26 06:15:03;;;;;;;106.03;18.40;;;;;;;2.89;100.00;97694.25;4956482;28;20041;-85
2021/12/26 06:17:29;;;;;;;17.70;12.05;;;;;;;2.84;100.00;97686.19;4940711;28;20062;-85
2021/12/26 06:19:55;;;;;;;28.63;13.65;;;;;;;2.83;100.00;97666.44;4957134;28;20377;-85
2021/12/26 06:22:20;;;;;;;81.65;16.95;;;;;;;2.85;100.00;97680.84;4956778;28;20037;-84
2021/12/26 06:24:46;;;;;;;53.67;14.40;;;;;;;2.92;100.00;97686.09;4955593;28;20556;-84
2021/12/26 06:27:11;;;;;;;17.33;12.18;;;;;;;2.88;100.00;97673.69;4974056;28;20038;-84
2021/12/26 06:29:38;;;;;;;22.83;13.23;;;;;;;2.95;100.00;97675.41;4955333;28;20485;-85
2021/12/26 06:32:04;;;;;;;28.52;14.85;;;;;;;2.82;100.00;97657.06;4974149;28;20033;-85
2021/12/26 06:34:30;;;;;;;39.65;13.95;;;;;;;3.02;100.00;97677.25;4974232;28;20465;-84
2021/12/26 06:36:56;;;;;;;18.50;12.52;;;;;;;3.06;100.00;97683.69;4955124;28;20049;-84
2021/12/26 06:39:22;;;;;;;123.18;19.00;;;;;;;2.94;100.00;97663.41;4956709;28;20110;-84
2021/12/26 06:41:47;;;;;;;134.32;19.92;;;;;;;2.98;100.00;97672.44;4940575;28;20035;-83
2021/12/26 06:44:14;;;;;;;178.10;21.20;;;;;;;2.77;100.00;97646.44;4955788;28;20247;-85
2021/12/26 06:46:41;;;;;;;76.82;16.55;;;;;;;2.99;100.00;97675.81;4956183;28;20034;-84
2021/12/26 06:49:07;;;;;;;19.33;12.45;;;;;;;3.01;100.00;97668.66;4974393;28;20118;-83
2021/12/26 06:51:33;;;;;;;20.15;12.98;;;;;;;3.11;100.00;97678.75;4938700;28;20030;-84
2021/12/26 06:53:58;;;;;;;26.63;13.27;;;;;;;3.10;100.00;97677.16;4956214;28;20031;-83
2021/12/26 06:56:24;;;;;;;34.75;14.48;;;;;;;2.97;100.00;97657.88;4973230;28;20114;-82
2021/12/26 06:58:50;;;;;;;36.25;16.10;;;;;;;3.13;100.00;97675.03;4939725;28;20208;-84
2021/12/26 07:01:16;;;;;;;56.85;17.25;;;;;;;3.13;100.00;97677.63;4955273;28;20541;-84
2021/12/26 07:03:41;;;;;;;83.70;18.15;;;;;;;2.91;100.00;97650.78;4973318;28;20385;-83
2021/12/26 07:06:07;;;;;;;425.77;38.42;;;;;;;3.05;100.00;97669.94;4957345;28;20470;-84
2021/12/26 07:08:33;;;;;;;39.47;16.98;;;;;;;3.21;100.00;97678.50;4957778;28;20043;-84
2021/12/26 07:10:59;;;;;;;113.93;21.40;;;;;;;3.18;100.00;97660.69;4936685;28;20533;-86
2021/12/26 07:13:24;;;;;;;174.63;26.65;;;;;;;3.22;100.00;97667.94;4957794;28;20062;-86
2021/12/26 07:15:50;;;;;;;154.10;24.42;;;;;;;3.13;100.00;97663.81;4962886;28;20070;-85
2021/12/26 07:18:16;;;;;;;28.88;18.63;;;;;;;3.20;100.00;97669.91;4951380;28;20121;-84
2021/12/26 07:20:42;;;;;;;304.02;35.38;;;;;;;3.15;100.00;97674.84;4952579;28;20043;-84
2021/12/26 07:23:08;;;;;;;86.60;22.33;;;;;;;3.22;100.00;97665.34;4977508;28;20050;-84
2021/12/26 07:25:34;;;;;;;114.65;22.23;;;;;;;3.24;100.00;97668.56;4942228;28;20039;-85
2021/12/26 07:28:00;;;;;;;27.98;15.18;;;;;;;3.29;100.00;97663.63;4982004;28;20034;-83
2021/12/26 07:30:26;;;;;;;218.60;31.67;;;;;;;3.34;100.00;97667.47;4957102;28;20373;-84
2021/12/26 07:32:52;;;;;;;50.63;19.00;;;;;;;3.24;100.00;97658.19;4956640;28;20077;-85
2021/12/26 07:35:18;;;;;;;57.20;19.13;;;;;;;3.38;100.00;97664.34;4940490;28;20426;-84
2021/12/26 07:37:45;;;;;;;71.60;20.10;;;;;;;3.37;100.00;97661.94;4940896;28;20524;-85
2021/12/26 07:40:11;;;;;;;25.80;15.38;;;;;;;3.35;100.00;97661.31;4957585;28;20085;-84
2021/12/26 07:42:36;;;;;;;22.63;15.32;;;;;;;3.39;100.00;97662.56;4957190;28;20497;-84
2021/12/26 07:45:03;;;;;;;24.20;15.60;;;;;;;3.51;100.00;97663.69;4939324;28;20078;-84
2021/12/26 07:47:29;;;;;;;31.63;17.20;;;;;;;3.53;100.00;97661.69;4953437;28;20033;-85
2021/12/26 07:49:54;;;;;;;23.23;14.65;;;;;;;3.45;100.00;97661.81;4957565;28;20035;-84
2021/12/26 07:52:25;;;;;;;32.90;16.00;;;;;;;3.50;100.00;97666.47;4959983;28;20102;-83
2021/12/26 07:54:51;;;;;;;21.20;14.35;;;;;;;3.37;100.00;97647.16;4959379;28;20031;-85
2021/12/26 07:57:16;;;;;;;46.45;16.60;;;;;;;3.54;100.00;97671.13;4942741;28;20452;-83
2021/12/26 07:59:42;;;;;;;72.63;19.98;;;;;;;3.55;100.00;97671.91;4985137;28;20038;-84
2021/12/26 08:02:08;;;;;;;24.95;15.35;;;;;;;3.62;100.00;97671.97;4941990;28;20062;-84
2021/12/26 08:04:34;;;;;;;24.42;14.75;;;;;;;3.53;100.00;97660.91;4941961;28;20045;-83
2021/12/26 08:07:00;;;;;;;43.80;16.38;;;;;;;3.46;100.00;97654.84;4987072;28;20041;-83
2021/12/26 08:09:26;;;;;;;24.90;14.15;;;;;;;3.54;100.00;97663.34;4960712;28;20042;-83
2021/12/26 08:11:53;;;;;;;40.67;15.30;;;;;;;3.52;100.00;97662.69;4960338;28;20504;-84
2021/12/26 08:14:19;;;;;;;22.05;15.18;;;;;;;3.62;100.00;97669.38;4943835;28;20026;-83
2021/12/26 08:16:44;;;;;;;27.85;14.52;;;;;;;3.60;100.00;97668.78;4989430;28;20047;-89
2021/12/26 08:19:10;;;;;;;52.08;18.13;;;;;;;3.48;100.00;97658.84;4957233;28;20481;-86
2021/12/26 08:21:36;;;;;;;20.23;13.82;;;;;;;3.55;100.00;97675.31;4943236;28;20401;-84
2021/12/26 08:24:03;;;;;;;27.83;13.90;;;;;;;3.53;100.00;97663.50;4942944;28;20034;-85
2021/12/26 08:26:32;;;;;;;41.00;16.33;;;;;;;3.47;100.00;97662.44;4959313;28;20493;-88
2021/12/26 08:28:58;;;;;;;51.60;15.15;;;;;;;3.59;100.00;97669.75;4959688;28;20037;-85
2021/12/26 08:31:23;;;;;;;22.60;14.15;;;;;;;3.48;100.00;97668.44;4960898;28;20056;-88
2021/12/26 08:33:49;;;;;;;18.75;13.48;;;;;;;3.66;100.00;97686.19;4962024;28;20027;-88
2021/12/26 08:36:18;;;;;;;22.65;13.52;;;;;;;3.62;100.00;97675.38;4961502;28;20031;-84
2021/12/26 08:38:44;;;;;;;27.17;15.40;;;;;;;3.73;100.00;97687.06;4943577;28;20037;-85
2021/12/26 08:41:10;;;;;;;65.07;19.05;;;;;;;3.73;100.00;97674.06;4943430;28;20077;-85
2021/12/26 08:43:36;;;;;;;36.95;16.67;;;;;;;3.72;100.00;97683.66;4958714;28;20489;-84
2021/12/26 08:46:02;;;;;;;20.52;14.52;;;;;;;3.70;100.00;97690.03;4958547;28;20070;-84
2021/12/26 08:48:29;;;;;;;24.75;13.82;;;;;;;3.57;100.00;97660.38;4961647;28;20068;-84
2021/12/26 08:50:56;;;;;;;27.77;14.50;;;;;;;3.70;100.00;97680.47;4973595;28;20469;-87
2021/12/26 08:53:24;;;;;;;26.33;15.70;;;;;;;3.85;100.00;97687.41;4984414;28;20033;-83
2021/12/26 08:55:50;;;;;;;29.70;16.00;;;;;;;3.82;100.00;97695.53;4960939;28;20500;-84
2021/12/26 08:58:16;;;;;;;22.63;15.35;;;;;;;3.73;100.00;97681.88;4944988;28;20036;-85
2021/12/26 09:00:42;;;;;;;22.23;14.90;;;;;;;3.85;100.00;97697.78;4958538;28;20027;-88
2021/12/26 09:03:08;;;;;;;22.13;14.55;;;;;;;3.85;100.00;97695.97;4975392;28;20034;-82
2021/12/26 09:05:34;;;;;;;48.08;17.08;;;;;;;3.88;100.00;97697.41;4976580;28;20089;-86
2021/12/26 09:08:02;;;;;;;29.40;16.77;;;;;;;3.94;100.00;97694.06;4976736;28;20031;-87
2021/12/26 09:10:29;;;;;;;24.83;16.98;;;;;;;4.00;100.00;97697.72;4943180;28;20034;-89
2021/12/26 09:12:55;;;;;;;21.20;14.18;;;;;;;3.96;100.00;97689.50;4962924;28;20034;-87
2021/12/26 09:15:21;;;;;;;26.83;16.30;;;;;;;4.03;100.00;97694.75;4961313;28;20050;-85
2021/12/26 09:17:48;;;;;;;25.58;16.63;;;;;;;4.02;100.00;97690.56;4945237;28;20141;-88
2021/12/26 09:20:14;;;;;;;24.33;16.77;;;;;;;4.04;100.00;97693.75;4955261;28;20494;-90
2021/12/26 09:22:42;;;;;;;31.65;17.60;;;;;;;3.95;100.00;97676.72;4962316;28;20034;-89
2021/12/26 09:25:10;;;;;;;61.90;21.33;;;;;;;4.03;100.00;97694.75;4945075;28;20113;-85
2021/12/26 09:27:36;;;;;;;25.13;15.90;;;;;;;4.06;100.00;97696.97;4958442;28;20034;-85
2021/12/26 09:30:06;;;;;;;26.45;15.90;;;;;;;4.04;100.00;97682.59;4940767;28;20031;-85
2021/12/26 09:32:33;;;;;;;24.10;15.50;;;;;;;4.16;100.00;97688.09;4955745;28;20034;-86
2021/12/26 09:34:59;;;;;;;25.92;17.75;;;;;;;4.24;100.00;97695.72;4941944;28;20509;-88
2021/12/26 09:37:25;;;;;;;26.88;16.33;;;;;;;4.25;100.00;97695.56;4960267;28;20066;-88
2021/12/26 09:39:52;;;;;;;25.90;15.60;;;;;;;4.11;100.00;97683.44;4947394;28;20138;-88
2021/12/26 09:42:19;;;;;;;28.45;16.00;;;;;;;4.04;100.00;97691.16;4954885;28;20033;-86
2021/12/26 09:44:45;;;;;;;55.65;19.08;;;;;;;4.13;100.00;97689.25;4956563;28;20030;-87
2021/12/26 09:47:13;;;;;;;24.40;15.70;;;;;;;4.21;100.00;97688.31;4943978;28;20042;-88
2021/12/26 09:49:38;;;;;;;25.90;16.58;;;;;;;4.21;100.00;97689.09;4983710;28;20460;-83
2021/12/26 09:52:05;;;;;;;26.58;16.00;;;;;;;4.34;100.00;97698.84;4982556;28;20054;-84
2021/12/26 09:54:32;;;;;;;36.20;17.42;;;;;;;4.24;100.00;97682.75;4979328;28;20050;-86
2021/12/26 09:56:57;;;;;;;22.75;15.02;;;;;;;4.32;100.00;97687.78;4939692;28;20038;-84
2021/12/26 09:59:27;;;;;;;25.30;15.55;;;;;;;4.37;100.00;97690.66;4941117;28;20680;-85
2021/12/26 10:01:56;;;;;;;20.85;14.52;;;;;;;4.39;100.00;97686.06;4934836;28;20034;-84
2021/12/26 10:04:30;;;;;;;24.45;16.17;;;;;;;4.40;100.00;97689.47;4986934;28;20030;-81
2021/12/26 10:07:01;;;;;;;25.77;15.90;;;;;;;4.50;100.00;97681.34;4939341;28;20059;-82
2021/12/26 10:09:28;;;;;;;25.95;16.33;;;;;;;4.51;100.00;97681.16;4957305;28;20034;-82
2021/12/26 10:11:57;;;;;;;28.88;15.70;;;;;;;4.50;100.00;97676.16;4985089;28;20039;-82
2021/12/26 10:14:28;;;;;;;21.80;13.65;;;;;;;4.56;100.00;97681.41;4956090;28;20045;-81
2021/12/26 10:17:03;;;;;;;24.23;15.07;;;;;;;4.53;100.00;97670.59;4957532;28;20057;-82
2021/12/26 10:19:38;;;;;;;22.55;14.40;;;;;;;4.58;100.00;97669.00;4958566;28;20121;-81
2021/12/26 10:22:05;;;;;;;23.63;15.27;;;;;;;4.57;100.00;97674.41;4939455;28;20031;-82
2021/12/26 10:24:34;;;;;;;29.15;16.77;;;;;;;4.40;100.00;97648.72;4941166;28;20041;-83
2021/12/26 10:27:06;;;;;;;26.85;15.48;;;;;;;4.54;100.00;97656.59;4981638;28;20388;-81
2021/12/26 10:29:40;;;;;;;18.17;10.93;;;;;;;4.56;100.00;97665.81;4956271;28;20104;-82
2021/12/26 10:32:14;;;;;;;134.32;25.50;;;;;;;4.51;100.00;97662.97;4957060;28;20038;-82
2021/12/26 10:34:44;;;;;;;23.45;15.80;;;;;;;4.62;100.00;97672.03;4960102;28;20034;-82
2021/12/26 10:37:14;;;;;;;28.13;16.33;;;;;;;4.57;100.00;97661.41;4990957;28;20041;-81
2021/12/26 10:39:46;;;;;;;24.50;15.05;;;;;;;4.70;100.00;97677.09;4971578;28;20089;-81
2021/12/26 10:42:19;;;;;;;23.40;15.73;;;;;;;4.75;100.00;97676.53;4959717;28;20069;-80
2021/12/26 10:44:54;;;;;;;29.25;15.70;;;;;;;4.65;100.00;97663.88;4961590;28;20142;-82
2021/12/26 10:47:32;;;;;;;24.02;15.15;;;;;;;4.66;100.00;97664.69;4957084;28;20035;-80
2021/12/26 10:50:07;;;;;;;24.75;15.40;;;;;;;4.67;100.00;97666.28;4944027;28;20081;-81
2021/12/26 10:52:41;;;;;;;24.35;15.18;;;;;;;4.66;100.00;97657.66;4954672;28;20035;-78
2021/12/26 10:55:13;;;;;;;46.20;18.25;;;;;;;4.57;100.00;97661.41;4955868;28;20520;-80
2021/12/26 10:57:39;;;;;;;21.20;13.73;;;;;;;4.66;100.00;97657.66;4955101;28;20090;-80
2021/12/26 11:00:20;;;;;;;16.98;12.32;;;;;;;4.66;100.00;97646.47;4939136;28;20043;-79
2021/12/26 11:03:00;;;;;;;24.65;15.00;;;;;;;4.62;100.00;97635.66;4955310;28;20035;-82
2021/12/26 11:05:34;;;;;;;23.40;14.68;;;;;;;4.66;100.00;97638.69;4939440;28;20035;-80
2021/12/26 11:08:06;;;;;;;22.30;13.73;;;;;;;4.70;100.00;97629.50;4956385;28;20054;-81
2021/12/26 11:10:40;;;;;;;20.40;13.02;;;;;;;4.70;100.00;97619.09;4942150;28;20553;-82
2021/12/26 11:13:15;;;;;;;24.42;14.95;;;;;;;4.81;100.00;97636.75;4977458;28;20496;-81
2021/12/26 11:15:41;;;;;;;22.85;14.30;;;;;;;4.84;100.00;97628.59;4956068;28;20034;-84
2021/12/26 11:18:13;;;;;;;21.02;13.52;;;;;;;4.86;100.00;97633.59;4937071;28;20093;-84